Time;durP1;ratioP1;P1;durP2;ratioP2;P2;SDS_P1;SDS_P2;PMS_P1;PMS_P2;Temp;Humidity;BMP_temperature;BMP_pressure;BME280_temperature;BME280_humidity;BME280_pressure;Samples;Min_cycle;Max_cycle;Signal;HPM_P1;HPM_P2
2022/03/28 00:00:30;;;;;;;9.20;2.00;;;;;14.30;102617.00;;;;4985360;28;20245;-76
2022/03/28 00:02:58;;;;;;;6.22;1.70;;;;;14.30;102619.00;;;;4970082;28;20679;-76
2022/03/28 00:05:26;;;;;;;4.75;1.40;;;;;14.30;102615.00;;;;4969628;28;20676;-76
2022/03/28 00:07:55;;;;;;;7.47;1.92;;;;;14.20;102622.00;;;;4970622;28;20206;-76
2022/03/28 00:10:22;;;;;;;7.03;1.73;;;;;14.20;102608.00;;;;4970039;28;20202;-76
2022/03/28 00:12:50;;;;;;;5.45;1.42;;;;;14.20;102612.00;;;;4970474;28;20795;-76
2022/03/28 00:15:17;;;;;;;10.68;1.90;;;;;14.20;102610.00;;;;4970017;28;20222;-76
2022/03/28 00:17:45;;;;;;;7.32;1.88;;;;;14.20;102606.00;;;;4969039;28;20205;-76
2022/03/28 00:20:12;;;;;;;7.03;2.17;;;;;14.20;102603.00;;;;4971085;28;20260;-77
2022/03/28 00:22:40;;;;;;;6.90;1.63;;;;;14.20;102599.00;;;;4971088;28;20228;-76
2022/03/28 00:25:12;;;;;;;6.07;2.05;;;;;14.10;102593.00;;;;4968086;28;20210;-77
2022/03/28 00:27:39;;;;;;;6.40;1.45;;;;;14.10;102598.00;;;;4969863;28;20294;-76
2022/03/28 00:30:08;;;;;;;6.22;1.88;;;;;14.10;102585.00;;;;4970711;28;20566;-76
2022/03/28 00:32:35;;;;;;;8.88;2.13;;;;;14.10;102582.00;;;;4986999;28;20225;-77
2022/03/28 00:35:03;;;;;;;3.50;1.13;;;;;14.00;102582.00;;;;4990293;28;20197;-76
2022/03/28 00:37:30;;;;;;;5.80;2.28;;;;;14.00;102580.00;;;;4978218;28;20712;-76
2022/03/28 00:39:57;;;;;;;10.73;2.35;;;;;14.00;102578.00;;;;4970483;28;20206;-76
2022/03/28 00:42:26;;;;;;;8.05;1.92;;;;;14.00;102577.00;;;;4969197;28;20647;-76
2022/03/28 00:44:53;;;;;;;6.05;2.08;;;;;14.00;102574.00;;;;4969381;28;20294;-77
2022/03/28 00:47:21;;;;;;;4.57;1.55;;;;;14.00;102566.00;;;;4969626;28;20277;-76
2022/03/28 00:49:48;;;;;;;10.10;1.88;;;;;13.90;102564.00;;;;4980541;28;20201;-77
2022/03/28 00:52:16;;;;;;;6.85;2.22;;;;;13.90;102563.00;;;;4969926;28;20205;-77
2022/03/28 00:54:43;;;;;;;5.65;1.60;;;;;13.90;102556.00;;;;4970470;28;20202;-77
2022/03/28 00:57:10;;;;;;;5.82;1.63;;;;;13.90;102560.00;;;;4969905;28;20198;-77
2022/03/28 00:59:39;;;;;;;7.85;1.92;;;;;13.80;102555.00;;;;4970140;28;20689;-77
2022/03/28 01:02:06;;;;;;;7.15;1.63;;;;;13.80;102556.00;;;;4968943;28;20206;-77
2022/03/28 01:04:34;;;;;;;6.88;2.13;;;;;13.80;102553.00;;;;4970701;28;20669;-77
2022/03/28 01:07:01;;;;;;;6.75;2.35;;;;;13.80;102544.00;;;;4966308;28;20202;-77
2022/03/28 01:09:28;;;;;;;6.05;2.40;;;;;13.70;102541.00;;;;4968817;28;20202;-78
2022/03/28 01:11:56;;;;;;;11.77;2.03;;;;;13.70;102537.00;;;;4969556;28;20218;-77
2022/03/28 01:14:26;;;;;;;6.60;2.00;;;;;13.70;102539.00;;;;4968647;28;20209;-78
2022/03/28 01:19:39;;;;;;;7.97;1.65;;;;;13.60;102534.00;;;;4969116;28;20209;-77
2022/03/28 01:22:08;;;;;;;10.30;2.15;;;;;13.50;102531.00;;;;4974433;28;20674;-77
2022/03/28 01:24:36;;;;;;;5.75;1.92;;;;;13.50;102531.00;;;;4981677;28;20222;-77
2022/03/28 01:27:04;;;;;;;9.38;2.25;;;;;13.50;102522.00;;;;4969685;28;20194;-77
2022/03/28 01:29:31;;;;;;;12.60;2.75;;;;;13.50;102519.00;;;;4969895;28;20208;-77
2022/03/28 01:31:58;;;;;;;8.80;2.58;;;;;13.50;102517.00;;;;4968888;28;20248;-78
2022/03/28 01:34:25;;;;;;;7.43;2.13;;;;;13.40;102517.00;;;;4968901;28;20201;-77
2022/03/28 01:36:53;;;;;;;10.85;2.47;;;;;13.40;102520.00;;;;4968822;28;20789;-77
2022/03/28 01:39:21;;;;;;;8.75;2.40;;;;;13.40;102515.00;;;;4969983;28;20202;-77
2022/03/28 01:41:49;;;;;;;8.43;2.65;;;;;13.40;102513.00;;;;4966750;28;20201;-77
2022/03/28 01:44:16;;;;;;;6.95;2.28;;;;;13.30;102520.00;;;;4969081;28;20226;-77
2022/03/28 01:46:44;;;;;;;9.48;2.13;;;;;13.30;102513.00;;;;4968350;28;20214;-77
2022/03/28 01:49:12;;;;;;;7.30;1.90;;;;;13.30;102504.00;;;;4969285;28;20202;-78
2022/03/28 01:51:39;;;;;;;4.18;1.48;;;;;13.20;102502.00;;;;4969262;28;20205;-77
2022/03/28 01:54:07;;;;;;;6.63;2.35;;;;;13.20;102507.00;;;;4968561;28;20205;-77
2022/03/28 01:56:37;;;;;;;9.85;2.03;;;;;13.20;102495.00;;;;4975735;28;20293;-77
2022/03/28 01:59:05;;;;;;;8.75;2.38;;;;;13.20;102491.00;;;;4969123;28;20198;-77
2022/03/28 02:01:32;;;;;;;12.63;2.83;;;;;13.20;102497.00;;;;4968186;28;20669;-77
2022/03/28 02:04:00;;;;;;;7.65;1.95;;;;;13.10;102492.00;;;;4968732;28;20234;-77
2022/03/28 02:06:28;;;;;;;8.05;2.17;;;;;13.10;102489.00;;;;4968257;28;20215;-77
2022/03/28 02:08:58;;;;;;;9.10;2.83;;;;;13.10;102496.00;;;;4964979;28;20197;-78
2022/03/28 02:11:26;;;;;;;7.22;2.00;;;;;13.10;102491.00;;;;4968587;28;20600;-77
2022/03/28 02:13:54;;;;;;;9.07;1.77;;;;;13.00;102485.00;;;;4976651;28;20265;-77
2022/03/28 02:16:21;;;;;;;6.72;2.40;;;;;13.10;102486.00;;;;4968127;28;20230;-77
2022/03/28 02:18:49;;;;;;;9.82;2.40;;;;;13.00;102489.00;;;;4969014;28;20206;-77
2022/03/28 02:21:16;;;;;;;7.18;2.55;;;;;13.00;102481.00;;;;4968788;28;20206;-77
2022/03/28 02:23:43;;;;;;;6.20;2.03;;;;;13.00;102478.00;;;;4968108;28;20245;-77
2022/03/28 02:26:10;;;;;;;6.55;1.85;;;;;13.00;102465.00;;;;4968336;28;20666;-77
2022/03/28 02:28:37;;;;;;;9.90;2.38;;;;;12.90;102470.00;;;;4968281;28;20211;-78
2022/03/28 02:31:06;;;;;;;7.80;2.03;;;;;12.90;102468.00;;;;4975190;28;20579;-77
2022/03/28 02:33:34;;;;;;;5.75;2.00;;;;;12.90;102468.00;;;;4970402;28;20277;-77
2022/03/28 02:36:01;;;;;;;6.22;1.95;;;;;12.90;102470.00;;;;4982803;28;20317;-77
2022/03/28 02:38:28;;;;;;;10.13;2.17;;;;;12.90;102465.00;;;;4980737;28;20259;-77
2022/03/28 02:40:55;;;;;;;5.38;2.25;;;;;12.80;102462.00;;;;4976863;28;20198;-77
2022/03/28 02:43:23;;;;;;;6.88;2.50;;;;;12.80;102450.00;;;;4971285;28;20226;-77
2022/03/28 02:45:50;;;;;;;9.25;2.60;;;;;12.80;102449.00;;;;4973000;28;20206;-77
2022/03/28 02:48:18;;;;;;;8.05;2.22;;;;;12.70;102437.00;;;;4986189;28;20289;-78
2022/03/28 02:50:47;;;;;;;8.68;2.30;;;;;12.70;102438.00;;;;4991834;28;20208;-77
2022/03/28 02:53:14;;;;;;;4.45;1.42;;;;;12.70;102435.00;;;;4992054;28;20245;-78
2022/03/28 02:55:41;;;;;;;6.78;2.28;;;;;12.70;102432.00;;;;4976775;28;20186;-77
2022/03/28 02:58:08;;;;;;;6.03;1.98;;;;;12.70;102431.00;;;;4973041;28;20190;-77
2022/03/28 03:00:36;;;;;;;6.40;2.28;;;;;12.70;102428.00;;;;4971672;28;20243;-77
2022/03/28 03:03:03;;;;;;;6.15;2.53;;;;;12.60;102426.00;;;;4971883;28;20214;-77
2022/03/28 03:05:32;;;;;;;7.93;2.22;;;;;12.60;102420.00;;;;4972467;28;20215;-77
2022/03/28 03:08:00;;;;;;;8.65;2.08;;;;;12.60;102420.00;;;;4971405;28;20190;-77
2022/03/28 03:10:28;;;;;;;9.35;2.40;;;;;12.50;102423.00;;;;4963735;28;20195;-77
2022/03/28 03:12:55;;;;;;;10.63;3.33;;;;;12.50;102427.00;;;;4971699;28;20595;-77
2022/03/28 03:15:22;;;;;;;9.90;3.53;;;;;12.50;102422.00;;;;4970557;28;20222;-77
2022/03/28 03:17:49;;;;;;;8.05;2.60;;;;;12.50;102414.00;;;;4971236;28;20217;-77
2022/03/28 03:20:17;;;;;;;6.88;2.47;;;;;12.40;102423.00;;;;4971632;28;20403;-77
2022/03/28 03:22:45;;;;;;;12.23;3.03;;;;;12.40;102413.00;;;;4973879;28;20202;-77
2022/03/28 03:25:12;;;;;;;9.20;3.15;;;;;12.40;102417.00;;;;4969912;28;20221;-77
2022/03/28 03:27:40;;;;;;;5.95;2.50;;;;;12.40;102411.00;;;;4970365;28;20191;-76
2022/03/28 03:30:08;;;;;;;13.23;2.97;;;;;12.40;102406.00;;;;4971623;28;20633;-77
2022/03/28 03:32:36;;;;;;;8.27;2.60;;;;;12.30;102412.00;;;;4971497;28;20202;-76
2022/03/28 03:35:04;;;;;;;7.95;2.65;;;;;12.30;102404.00;;;;4970472;28;20280;-76
2022/03/28 03:37:31;;;;;;;9.30;3.38;;;;;12.30;102406.00;;;;4972016;28;20222;-76
2022/03/28 03:40:00;;;;;;;7.25;2.75;;;;;12.20;102406.00;;;;4970404;28;20684;-76
2022/03/28 03:42:27;;;;;;;6.75;2.53;;;;;12.20;102397.00;;;;4970088;28;20680;-76
2022/03/28 03:44:55;;;;;;;6.88;2.50;;;;;12.20;102400.00;;;;4970463;28;20332;-76
2022/03/28 03:47:22;;;;;;;7.10;2.78;;;;;12.20;102397.00;;;;4969510;28;20194;-76
2022/03/28 03:49:49;;;;;;;7.10;2.17;;;;;12.20;102389.00;;;;4970989;28;20281;-77
2022/03/28 03:52:17;;;;;;;5.85;2.80;;;;;12.10;102393.00;;;;4970671;28;20661;-76
2022/03/28 03:54:44;;;;;;;4.57;2.75;;;;;12.10;102383.00;;;;4959959;28;20194;-76
2022/03/28 03:57:13;;;;;;;6.43;3.03;;;;;12.00;102385.00;;;;4974676;28;20201;-77
2022/03/28 03:59:40;;;;;;;5.05;2.83;;;;;12.00;102376.00;;;;4970142;28;20960;-76
2022/03/28 04:02:08;;;;;;;6.00;2.88;;;;;12.00;102386.00;;;;4971063;28;20202;-76
2022/03/28 04:04:36;;;;;;;4.82;2.50;;;;;12.00;102393.00;;;;4971360;28;20273;-76
2022/03/28 04:07:03;;;;;;;7.00;3.50;;;;;12.00;102381.00;;;;4971201;28;20680;-76
2022/03/28 04:09:30;;;;;;;6.88;3.17;;;;;12.00;102378.00;;;;4969220;28;20199;-76
2022/03/28 04:11:58;;;;;;;14.85;3.33;;;;;11.90;102370.00;;;;4973713;28;20217;-76
2022/03/28 04:14:26;;;;;;;9.90;3.55;;;;;11.90;102383.00;;;;4968028;28;20285;-77
2022/03/28 04:16:53;;;;;;;8.90;2.90;;;;;11.90;102375.00;;;;4969169;28;20222;-76
2022/03/28 04:19:21;;;;;;;4.95;3.10;;;;;11.90;102374.00;;;;4969479;28;20198;-76
2022/03/28 04:21:48;;;;;;;8.20;3.42;;;;;11.80;102362.00;;;;4970306;28;20269;-76
2022/03/28 04:24:15;;;;;;;7.18;3.28;;;;;11.80;102363.00;;;;4967517;28;20874;-76
2022/03/28 04:26:42;;;;;;;6.60;3.50;;;;;11.80;102363.00;;;;4969851;28;20209;-76
2022/03/28 04:29:10;;;;;;;7.57;3.35;;;;;11.80;102361.00;;;;4970748;28;20208;-76
2022/03/28 04:31:40;;;;;;;7.60;3.10;;;;;11.70;102351.00;;;;4969293;28;20982;-76
2022/03/28 04:34:08;;;;;;;7.43;3.53;;;;;11.70;102355.00;;;;4970616;28;20596;-76
2022/03/28 04:36:35;;;;;;;6.45;3.08;;;;;11.70;102346.00;;;;4969366;28;20191;-77
2022/03/28 04:39:02;;;;;;;5.20;3.15;;;;;11.60;102351.00;;;;4969831;28;20715;-77
2022/03/28 04:41:29;;;;;;;9.32;4.32;;;;;11.60;102348.00;;;;4969842;28;20206;-77
2022/03/28 04:43:57;;;;;;;7.90;4.00;;;;;11.60;102346.00;;;;4976594;28;20226;-77
2022/03/28 04:46:24;;;;;;;6.97;4.43;;;;;11.60;102354.00;;;;4976819;28;20656;-77
2022/03/28 04:48:53;;;;;;;9.43;3.78;;;;;11.50;102345.00;;;;4989925;28;20209;-77
2022/03/28 04:51:20;;;;;;;6.45;4.07;;;;;11.50;102353.00;;;;4989386;28;20197;-77
2022/03/28 04:53:47;;;;;;;6.97;4.05;;;;;11.50;102350.00;;;;4976959;28;20198;-77
2022/03/28 04:56:14;;;;;;;5.20;3.38;;;;;11.50;102344.00;;;;4980684;28;20202;-77
2022/03/28 04:58:42;;;;;;;8.60;4.30;;;;;11.40;102340.00;;;;4969477;28;20232;-77
2022/03/28 05:01:09;;;;;;;7.18;3.85;;;;;11.40;102339.00;;;;4968502;28;20218;-77
2022/03/28 05:03:36;;;;;;;6.03;4.28;;;;;11.40;102344.00;;;;4978805;28;20289;-77
2022/03/28 05:06:05;;;;;;;7.47;4.10;;;;;11.40;102345.00;;;;4983545;28;20285;-77
2022/03/28 05:08:32;;;;;;;7.15;4.00;;;;;11.40;102345.00;;;;4968551;28;20198;-76
2022/03/28 05:11:00;;;;;;;9.77;5.22;;;;;11.40;102340.00;;;;4969833;28;20211;-77
2022/03/28 05:13:27;;;;;;;7.35;4.07;;;;;11.30;102340.00;;;;4957334;28;20225;-77
2022/03/28 05:15:55;;;;;;;5.45;3.58;;;;;11.30;102349.00;;;;4969929;28;20237;-77
2022/03/28 05:18:22;;;;;;;7.22;4.60;;;;;11.30;102360.00;;;;4968337;28;20213;-76
2022/03/28 05:20:49;;;;;;;6.90;4.07;;;;;11.30;102369.00;;;;4979227;28;20205;-77
2022/03/28 05:23:18;;;;;;;6.28;4.22;;;;;11.20;102369.00;;;;4974493;28;20190;-77
2022/03/28 05:25:45;;;;;;;6.80;4.10;;;;;11.30;102365.00;;;;4968515;28;20230;-77
2022/03/28 05:28:12;;;;;;;5.43;4.03;;;;;11.30;102364.00;;;;4968717;28;20304;-77
2022/03/28 05:30:40;;;;;;;7.00;4.43;;;;;11.30;102361.00;;;;4969056;28;20771;-77
2022/03/28 05:33:10;;;;;;;5.95;4.10;;;;;11.20;102355.00;;;;4969259;28;20212;-77
2022/03/28 05:35:38;;;;;;;6.38;3.17;;;;;11.20;102361.00;;;;4967431;28;20580;-77
2022/03/28 05:38:05;;;;;;;8.05;4.55;;;;;11.20;102354.00;;;;4981728;28;20202;-76
2022/03/28 05:40:34;;;;;;;6.45;3.90;;;;;11.20;102357.00;;;;4968495;28;20201;-76
2022/03/28 05:43:02;;;;;;;6.47;4.20;;;;;11.20;102345.00;;;;4968055;28;20278;-77
2022/03/28 05:45:29;;;;;;;6.20;3.70;;;;;11.10;102347.00;;;;4971424;28;20610;-78
2022/03/28 05:47:57;;;;;;;5.22;3.75;;;;;11.10;102332.00;;;;4981449;28;20209;-76
2022/03/28 05:50:24;;;;;;;6.65;3.30;;;;;11.10;102335.00;;;;4979638;28;20198;-76
2022/03/28 05:52:51;;;;;;;5.32;2.97;;;;;11.00;102335.00;;;;4975024;28;20195;-77
2022/03/28 05:55:18;;;;;;;6.60;3.35;;;;;11.00;102322.00;;;;4988442;28;20689;-77
2022/03/28 05:57:47;;;;;;;4.65;2.60;;;;;11.00;102319.00;;;;4983703;28;20848;-77
2022/03/28 06:00:15;;;;;;;5.88;3.78;;;;;11.00;102311.00;;;;4975841;28;20603;-77
2022/03/28 06:02:43;;;;;;;5.00;2.67;;;;;11.00;102306.00;;;;4975303;28;20601;-75
2022/03/28 06:05:12;;;;;;;5.35;3.20;;;;;11.00;102304.00;;;;4961915;28;20226;-76
2022/03/28 06:07:40;;;;;;;5.07;3.38;;;;;10.90;102312.00;;;;4963982;28;20206;-76
2022/03/28 06:10:07;;;;;;;6.25;3.70;;;;;10.90;102314.00;;;;4961594;28;20226;-75
2022/03/28 06:12:35;;;;;;;5.70;3.20;;;;;10.90;102313.00;;;;4974950;28;20222;-77
2022/03/28 06:15:04;;;;;;;5.07;3.65;;;;;10.90;102318.00;;;;4974031;28;20716;-77
2022/03/28 06:17:31;;;;;;;5.45;3.15;;;;;10.90;102317.00;;;;4975584;28;20207;-77
2022/03/28 06:19:58;;;;;;;4.68;3.08;;;;;11.00;102319.00;;;;4977271;28;20558;-77
2022/03/28 06:22:26;;;;;;;6.15;2.72;;;;;11.00;102330.00;;;;4971476;28;20199;-77
2022/03/28 06:24:53;;;;;;;5.53;3.03;;;;;11.00;102318.00;;;;4973290;28;20572;-77
2022/03/28 06:27:23;;;;;;;3.88;2.63;;;;;11.00;102317.00;;;;4972671;28;20627;-77
2022/03/28 06:29:51;;;;;;;4.10;2.55;;;;;11.10;102315.00;;;;4984846;28;20273;-77
2022/03/28 06:32:20;;;;;;;3.72;2.60;;;;;11.10;102327.00;;;;4971493;28;20293;-77
2022/03/28 06:34:48;;;;;;;4.65;2.67;;;;;11.10;102323.00;;;;4972490;28;20209;-77
2022/03/28 06:37:16;;;;;;;4.38;2.72;;;;;11.20;102326.00;;;;4971680;28;20237;-77
2022/03/28 06:39:43;;;;;;;5.68;2.85;;;;;11.20;102333.00;;;;4970676;28;20285;-77
2022/03/28 06:42:10;;;;;;;4.68;2.90;;;;;11.30;102324.00;;;;4971078;28;20669;-77
2022/03/28 06:44:38;;;;;;;4.88;3.00;;;;;11.30;102328.00;;;;4972329;28;20229;-78
2022/03/28 06:47:06;;;;;;;3.80;2.63;;;;;11.40;102326.00;;;;4972130;28;20281;-77
2022/03/28 06:49:34;;;;;;;4.97;2.70;;;;;11.40;102323.00;;;;4971994;28;20205;-78
2022/03/28 06:52:02;;;;;;;4.28;2.42;;;;;11.50;102321.00;;;;4974816;28;20200;-78
2022/03/28 06:54:29;;;;;;;6.00;2.90;;;;;11.50;102316.00;;;;4971168;28;20198;-77
2022/03/28 06:56:56;;;;;;;7.65;3.33;;;;;11.50;102306.00;;;;4970540;28;20677;-76
2022/03/28 06:59:24;;;;;;;4.30;2.28;;;;;11.60;102308.00;;;;4971580;28;20198;-76
2022/03/28 07:01:51;;;;;;;3.42;2.17;;;;;11.60;102315.00;;;;4974862;28;20297;-76
2022/03/28 07:04:20;;;;;;;5.03;2.47;;;;;11.70;102316.00;;;;4971839;28;20198;-77
2022/03/28 07:06:48;;;;;;;5.22;3.00;;;;;11.70;102321.00;;;;4971921;28;20209;-77
2022/03/28 07:09:15;;;;;;;4.88;2.58;;;;;11.70;102307.00;;;;4970941;28;20191;-76
2022/03/28 07:11:43;;;;;;;3.95;2.65;;;;;11.80;102309.00;;;;4972509;28;20327;-75
2022/03/28 07:14:10;;;;;;;4.53;2.53;;;;;11.80;102299.00;;;;4971241;28;20708;-76
2022/03/28 07:16:38;;;;;;;3.88;2.63;;;;;11.80;102302.00;;;;4971854;28;20230;-76
2022/03/28 07:19:05;;;;;;;2.70;1.85;;;;;11.90;102300.00;;;;4977059;28;20206;-77
2022/03/28 07:21:33;;;;;;;4.28;2.65;;;;;11.90;102294.00;;;;4978693;28;20195;-77
2022/03/28 07:24:02;;;;;;;5.70;3.05;;;;;11.90;102291.00;;;;4975881;28;20201;-75
2022/03/28 07:26:29;;;;;;;4.82;2.92;;;;;12.00;102293.00;;;;4976511;28;20226;-76
2022/03/28 07:29:02;;;;;;;5.07;2.92;;;;;12.00;102295.00;;;;4968188;28;20194;-76
2022/03/28 07:31:30;;;;;;;4.25;2.75;;;;;12.10;102291.00;;;;4979463;28;20736;-77
2022/03/28 07:36:40;;;;;;;6.00;3.05;;;;;12.20;102297.00;;;;4968447;28;20198;-76
2022/03/28 07:39:09;;;;;;;4.43;2.85;;;;;12.20;102288.00;;;;4968894;28;20210;-75
2022/03/28 07:41:36;;;;;;;6.97;2.88;;;;;12.30;102284.00;;;;4968239;28;20207;-75
2022/03/28 07:44:04;;;;;;;4.55;3.05;;;;;12.30;102290.00;;;;4969650;28;20693;-75
2022/03/28 07:46:32;;;;;;;6.13;3.72;;;;;12.40;102292.00;;;;4969213;28;20221;-75
2022/03/28 07:48:59;;;;;;;6.22;3.53;;;;;12.50;102292.00;;;;4971349;28;20198;-75
2022/03/28 07:51:26;;;;;;;5.28;3.10;;;;;12.60;102299.00;;;;4969136;28;20213;-76
2022/03/28 07:53:54;;;;;;;5.72;3.03;;;;;12.60;102288.00;;;;4970381;28;20343;-76
2022/03/28 07:56:23;;;;;;;5.85;3.40;;;;;12.70;102282.00;;;;4970106;28;20301;-76
2022/03/28 07:58:50;;;;;;;5.30;3.58;;;;;12.80;102288.00;;;;4972247;28;20201;-76
2022/03/28 08:01:18;;;;;;;5.53;3.42;;;;;12.80;102289.00;;;;4969933;28;20206;-76
2022/03/28 08:03:45;;;;;;;5.85;3.53;;;;;12.90;102290.00;;;;4968927;28;20214;-76
2022/03/28 08:06:12;;;;;;;6.43;3.55;;;;;13.00;102277.00;;;;4970264;28;20214;-76
2022/03/28 08:08:39;;;;;;;4.40;3.20;;;;;13.10;102283.00;;;;4970713;28;20269;-76
2022/03/28 08:11:07;;;;;;;5.63;3.47;;;;;13.20;102274.00;;;;4985925;28;20197;-76
2022/03/28 08:13:36;;;;;;;5.55;3.60;;;;;13.20;102279.00;;;;4971391;28;20233;-76
2022/03/28 08:16:05;;;;;;;4.72;3.78;;;;;13.40;102276.00;;;;4963808;28;20994;-76
2022/03/28 08:18:32;;;;;;;4.78;3.33;;;;;13.50;102277.00;;;;4970045;28;20194;-76
2022/03/28 08:21:00;;;;;;;4.65;3.50;;;;;13.60;102271.00;;;;4971963;28;20200;-77
2022/03/28 08:23:28;;;;;;;6.55;3.67;;;;;13.60;102279.00;;;;4970930;28;20198;-77
2022/03/28 08:25:55;;;;;;;5.15;3.72;;;;;13.80;102269.00;;;;4966715;28;20233;-77
2022/03/28 08:28:23;;;;;;;5.40;3.72;;;;;13.90;102270.00;;;;4978353;28;20580;-76
2022/03/28 08:30:53;;;;;;;5.60;3.38;;;;;13.90;102268.00;;;;4972909;28;20198;-76
2022/03/28 08:33:21;;;;;;;4.78;3.28;;;;;14.10;102266.00;;;;4973813;28;20245;-77
2022/03/28 08:35:48;;;;;;;6.32;3.42;;;;;14.20;102264.00;;;;4972926;28;20624;-76
2022/03/28 08:38:16;;;;;;;4.55;3.42;;;;;14.30;102263.00;;;;4973590;28;20198;-76
2022/03/28 08:40:44;;;;;;;5.78;3.88;;;;;14.40;102263.00;;;;4971996;28;20289;-77
2022/03/28 08:43:11;;;;;;;5.40;3.25;;;;;14.50;102263.00;;;;4968105;28;20209;-76
2022/03/28 08:45:41;;;;;;;5.43;3.72;;;;;14.60;102262.00;;;;4962282;28;20233;-77
2022/03/28 08:48:12;;;;;;;4.78;3.55;;;;;14.70;102259.00;;;;4969023;28;20286;-76
2022/03/28 08:50:42;;;;;;;5.95;2.92;;;;;14.80;102262.00;;;;4964455;28;20654;-77
2022/03/28 08:53:10;;;;;;;6.15;3.88;;;;;14.90;102272.00;;;;4961921;28;20201;-76
2022/03/28 08:55:40;;;;;;;4.72;3.28;;;;;15.00;102270.00;;;;4969019;28;20562;-77
2022/03/28 08:58:07;;;;;;;4.90;3.33;;;;;15.10;102271.00;;;;4970112;28;20229;-76
2022/03/28 09:00:35;;;;;;;4.88;3.88;;;;;15.20;102266.00;;;;4970047;28;20213;-76
2022/03/28 09:03:02;;;;;;;6.60;3.70;;;;;15.30;102269.00;;;;4970516;28;20205;-77
2022/03/28 09:05:34;;;;;;;7.18;4.07;;;;;15.40;102264.00;;;;4970011;28;20595;-77
2022/03/28 09:08:02;;;;;;;6.45;3.65;;;;;15.50;102253.00;;;;4966250;28;20209;-77
2022/03/28 09:10:33;;;;;;;5.45;3.92;;;;;15.60;102248.00;;;;4968562;28;20206;-77
2022/03/28 09:13:02;;;;;;;9.20;4.10;;;;;15.70;102251.00;;;;4970839;28;20253;-77
2022/03/28 09:15:47;;;;;;;5.65;3.75;;;;;15.70;102254.00;;;;4967985;28;20233;-77
2022/03/28 09:18:23;;;;;;;5.20;3.42;;;;;15.90;102248.00;;;;4969754;28;20205;-77
2022/03/28 09:20:53;;;;;;;8.20;4.05;;;;;16.00;102247.00;;;;4973097;28;20203;-77
2022/03/28 09:23:33;;;;;;;5.43;4.18;;;;;16.10;102245.00;;;;4968148;28;20202;-76
2022/03/28 09:26:06;;;;;;;7.50;3.90;;;;;16.20;102246.00;;;;4969595;28;20214;-76
2022/03/28 09:28:46;;;;;;;7.40;4.65;;;;;16.30;102240.00;;;;4963115;28;20233;-76
2022/03/28 09:31:24;;;;;;;6.97;4.55;;;;;16.40;102240.00;;;;4955734;28;20193;-76
2022/03/28 09:34:03;;;;;;;6.78;4.57;;;;;16.60;102233.00;;;;4952918;28;20653;-77
2022/03/28 09:36:48;;;;;;;6.50;4.25;;;;;16.60;102238.00;;;;4981163;28;20572;-77
2022/03/28 09:39:18;;;;;;;5.82;4.68;;;;;16.80;102234.00;;;;4968189;28;20195;-77
2022/03/28 09:41:47;;;;;;;8.02;4.95;;;;;16.90;102227.00;;;;4967982;28;20210;-76
2022/03/28 09:44:15;;;;;;;8.13;4.72;;;;;17.00;102223.00;;;;4969872;28;20237;-76
2022/03/28 09:46:42;;;;;;;9.43;5.28;;;;;17.10;102228.00;;;;4972948;28;20237;-76
2022/03/28 09:49:23;;;;;;;9.20;5.22;;;;;17.30;102213.00;;;;4972253;28;20591;-76
2022/03/28 09:52:03;;;;;;;7.35;5.20;;;;;17.30;102227.00;;;;4960179;28;20216;-76
2022/03/28 09:54:44;;;;;;;9.23;5.60;;;;;17.50;102224.00;;;;4982991;28;20201;-77
2022/03/28 09:57:13;;;;;;;8.20;4.95;;;;;17.60;102216.00;;;;4971011;28;20198;-77
2022/03/28 09:59:42;;;;;;;6.43;4.85;;;;;17.70;102217.00;;;;4973467;28;20254;-77
2022/03/28 10:02:18;;;;;;;7.95;5.57;;;;;17.80;102219.00;;;;4970208;28;20202;-77
2022/03/28 10:04:47;;;;;;;7.93;5.13;;;;;18.00;102215.00;;;;4970095;28;20842;-77
2022/03/28 10:07:16;;;;;;;10.18;5.13;;;;;18.10;102206.00;;;;4962300;28;20285;-77
2022/03/28 10:09:43;;;;;;;8.10;4.97;;;;;18.20;102203.00;;;;4971508;28;20210;-76
2022/03/28 10:12:11;;;;;;;11.48;6.22;;;;;18.40;102208.00;;;;4972041;28;20222;-77
2022/03/28 10:14:38;;;;;;;9.43;5.50;;;;;18.50;102203.00;;;;4970472;28;20214;-76
2022/03/28 10:17:08;;;;;;;7.97;5.22;;;;;18.60;102201.00;;;;4932955;29;20207;-76
2022/03/28 10:19:38;;;;;;;9.70;6.03;;;;;18.70;102204.00;;;;4934070;29;20585;-76
2022/03/28 10:22:09;;;;;;;10.82;5.30;;;;;18.80;102202.00;;;;4934067;29;20203;-76
2022/03/28 10:24:41;;;;;;;11.20;5.82;;;;;18.90;102198.00;;;;4932151;29;20199;-77
2022/03/28 10:27:11;;;;;;;9.40;6.15;;;;;19.10;102191.00;;;;4941815;29;20236;-76
2022/03/28 10:29:39;;;;;;;8.48;4.95;;;;;19.20;102195.00;;;;4931283;29;20266;-76
2022/03/28 10:32:15;;;;;;;10.98;6.53;;;;;19.30;102191.00;;;;4930848;29;20188;-77
2022/03/28 10:34:48;;;;;;;9.55;5.88;;;;;19.40;102191.00;;;;4932386;29;20211;-77
2022/03/28 10:37:30;;;;;;;11.50;5.60;;;;;19.50;102184.00;;;;4934452;29;20268;-77
2022/03/28 10:40:18;;;;;;;9.85;5.88;;;;;19.60;102185.00;;;;4933295;29;20726;-77
2022/03/28 10:42:52;;;;;;;10.73;6.28;;;;;19.80;102174.00;;;;4936666;29;20203;-77
2022/03/28 10:45:21;;;;;;;9.40;6.30;;;;;20.00;102185.00;;;;4939421;28;20554;-77
2022/03/28 10:47:52;;;;;;;11.00;6.30;;;;;20.10;102178.00;;;;4940377;29;20223;-76
2022/03/28 10:50:22;;;;;;;9.93;6.32;;;;;20.30;102175.00;;;;4934339;29;20203;-75
2022/03/28 10:53:11;;;;;;;9.43;6.18;;;;;20.30;102170.00;;;;4933706;29;20208;-75
2022/03/28 10:55:46;;;;;;;13.40;6.10;;;;;20.50;102162.00;;;;4933494;29;21078;-75
2022/03/28 10:58:21;;;;;;;9.50;5.88;;;;;20.60;102162.00;;;;4932056;29;20195;-76
2022/03/28 11:01:20;;;;;;;11.98;6.53;;;;;20.60;102158.00;;;;4936327;29;20207;-75
2022/03/28 11:03:51;;;;;;;8.95;6.10;;;;;20.80;102156.00;;;;4933945;29;20202;-76
2022/03/28 11:06:21;;;;;;;10.20;6.38;;;;;20.90;102156.00;;;;4933902;29;20224;-76
2022/03/28 11:09:01;;;;;;;11.52;6.30;;;;;20.90;102155.00;;;;4933559;29;20196;-75
2022/03/28 11:11:33;;;;;;;10.57;6.40;;;;;21.10;102141.00;;;;4933569;29;20295;-76
2022/03/28 11:14:05;;;;;;;7.78;5.85;;;;;21.10;102147.00;;;;4932798;29;20663;-75
2022/03/28 11:16:50;;;;;;;11.95;6.70;;;;;21.20;102142.00;;;;4962029;28;20222;-75
2022/03/28 11:19:29;;;;;;;10.30;5.63;;;;;21.30;102143.00;;;;4964813;28;20198;-76
2022/03/28 11:22:06;;;;;;;10.20;5.85;;;;;21.40;102134.00;;;;4971241;28;20202;-77
2022/03/28 11:24:44;;;;;;;8.60;5.90;;;;;21.40;102133.00;;;;4972470;28;20233;-76
2022/03/28 11:27:13;;;;;;;10.88;6.28;;;;;21.50;102134.00;;;;4970291;28;20233;-76
2022/03/28 11:29:41;;;;;;;11.73;6.00;;;;;21.60;102133.00;;;;4976128;28;20288;-77
2022/03/28 11:32:12;;;;;;;10.00;5.57;;;;;21.60;102130.00;;;;4979170;28;20202;-76
2022/03/28 11:34:40;;;;;;;8.88;5.18;;;;;21.70;102120.00;;;;4991195;28;20194;-77
2022/03/28 11:37:08;;;;;;;13.20;5.63;;;;;21.80;102112.00;;;;4978276;28;20237;-77
2022/03/28 11:39:54;;;;;;;11.00;5.43;;;;;21.70;102116.00;;;;4972478;28;20227;-76
2022/03/28 11:42:24;;;;;;;8.95;4.40;;;;;21.90;102116.00;;;;4981608;28;20201;-78
2022/03/28 11:44:52;;;;;;;10.88;5.38;;;;;22.00;102111.00;;;;4971141;28;20194;-75
2022/03/28 11:47:20;;;;;;;9.38;5.35;;;;;22.00;102106.00;;;;4970911;28;20214;-75
2022/03/28 11:49:55;;;;;;;6.13;4.78;;;;;22.00;102100.00;;;;4971451;28;20195;-77
2022/03/28 11:52:24;;;;;;;7.22;4.88;;;;;22.20;102092.00;;;;4980708;28;20202;-77
2022/03/28 11:54:52;;;;;;;9.90;5.10;;;;;22.20;102086.00;;;;4974798;28;20351;-78
2022/03/28 12:00:19;;;;;;;9.02;4.88;;;;;22.30;102088.00;;;;4971471;28;20252;-78
2022/03/28 12:02:52;;;;;;;7.97;5.32;;;;;22.40;102077.00;;;;4970512;28;20203;-80
2022/03/28 12:05:29;;;;;;;10.85;5.13;;;;;22.40;102090.00;;;;4969677;28;21069;-78
2022/03/28 12:07:57;;;;;;;11.77;5.03;;;;;22.60;102077.00;;;;4980722;28;20618;-80
2022/03/28 12:10:28;;;;;;;8.55;4.63;;;;;22.60;102079.00;;;;4978267;28;20205;-77
2022/03/28 12:12:57;;;;;;;13.20;4.88;;;;;22.70;102082.00;;;;4971210;28;20218;-77
2022/03/28 12:15:30;;;;;;;9.32;4.93;;;;;22.70;102074.00;;;;4969497;28;20238;-76
2022/03/28 12:17:59;;;;;;;9.15;5.20;;;;;22.80;102070.00;;;;4969718;28;20237;-78
2022/03/28 12:20:29;;;;;;;8.90;4.72;;;;;22.90;102074.00;;;;4972169;28;20199;-77
2022/03/28 12:22:58;;;;;;;7.82;4.85;;;;;22.90;102069.00;;;;4970625;28;20253;-76